This is the latest recevied weather packets stored in our database for station/object K1LBG. If no packets are shown the sender has not sent any weather packets the latest 10 day(s).
| Time | Temp. | Humidity | Pressure | Rain* | Wind** | Luminosity | Snow |
|---|---|---|---|---|---|---|---|
| 1777897288 | 13.89° C | 52% | 1011.4 hPa | 0 mm | - | - | - |
| 1777896703 | 12.78° C | 55% | 1011.4 hPa | 0 mm | - | - | - |
| 1777896410 | 12.78° C | 54% | 1011.3 hPa | 0 mm | - | - | - |
| 1777896097 | 12.22° C | 57% | 1011.4 hPa | 0 mm | - | - | - |
| 1777895490 | 11.67° C | 57% | 1011.3 hPa | 0 mm | - | - | - |
| 1777894608 | 10° C | 63% | 1011.3 hPa | 0 mm | - | - | - |
| 1777892486 | 7.78° C | 66% | 1011.3 hPa | 0 mm | - | - | - |
| 1777892223 | 7.78° C | 70% | 1011.3 hPa | 0 mm | - | - | - |
| 1777891897 | 7.22° C | 67% | 1011.3 hPa | 0 mm | - | - | - |
| 1777889489 | 5.56° C | 75% | 1011.3 hPa | 0 mm | - | - | - |
| 1777888001 | 4.44° C | 80% | 1011.1 hPa | 0 mm | - | - | - |
| 1777886799 | 5° C | 80% | 1011 hPa | 0 mm | - | - | - |
| 1777883533 | 5.56° C | 79% | 1010.8 hPa | 0 mm | - | - | - |
| 1777882301 | 6.11° C | 77% | 1010.8 hPa | 0 mm | - | - | - |
| 1777881680 | 6.11° C | 75% | 1010.9 hPa | 0 mm | - | - | - |
| 1777881406 | 6.11° C | 75% | 1010.9 hPa | 0 mm | - | - | - |
| 1777880781 | 6.11° C | 74% | 1010.9 hPa | 0 mm | - | - | - |
| 1777880510 | 6.11° C | 73% | 1010.9 hPa | 0 mm | - | - | - |
| 1777878418 | 6.11° C | 70% | 1010.7 hPa | 0 mm | - | - | - |
| 1777877789 | 6.11° C | 70% | 1010.7 hPa | 0 mm | - | - | - |
| 1777874194 | 6.11° C | 65% | 1010.7 hPa | 0 mm | - | - | - |
| 1777873010 | 5.56° C | 70% | 1010.8 hPa | 0 mm | - | - | - |
| 1777872700 | 5° C | 69% | 1010.8 hPa | 0 mm | - | - | - |
| 1777871797 | 4.44° C | 74% | 1010.7 hPa | 0 mm | - | - | - |
| 1777870333 | 4.44° C | 69% | 1010.8 hPa | 0 mm | - | - | - |
* Rain latest hour (hover to see other rain measurements)
** Current wind speed in m/s (hover to see current wind gust speed)